Time;durP1;ratioP1;P1;durP2;ratioP2;P2;SDS_P1;SDS_P2;PMS_P1;PMS_P2;Temp;Humidity;BMP_temperature;BMP_pressure;BME280_temperature;BME280_humidity;BME280_pressure;Samples;Min_cycle;Max_cycle;Signal;HPM_P1;HPM_P2
2022/10/01 00:02:02;;;;;;;1.23;0.40;;;20.70;79.00;;;;;;5145539;27;45541;-70
2022/10/01 00:04:29;;;;;;;2.50;0.47;;;20.70;78.00;;;;;;5143884;27;45591;-70
2022/10/01 00:06:58;;;;;;;0.40;0.30;;;20.70;78.10;;;;;;5136059;27;45400;-70
2022/10/01 00:09:26;;;;;;;0.50;0.32;;;20.70;78.00;;;;;;5145470;27;46396;-70
2022/10/01 00:11:53;;;;;;;0.30;0.30;;;20.70;78.20;;;;;;5145956;27;45469;-70
2022/10/01 00:14:20;;;;;;;0.57;0.40;;;20.70;78.50;;;;;;5146952;27;45314;-70
2022/10/01 00:16:47;;;;;;;0.40;0.38;;;20.70;78.40;;;;;;5146649;27;45269;-70
2022/10/01 00:19:14;;;;;;;0.60;0.40;;;20.70;78.20;;;;;;5147171;27;45422;-70
2022/10/01 00:21:41;;;;;;;0.32;0.30;;;20.70;78.10;;;;;;5146363;27;45924;-70
2022/10/01 00:24:11;;;;;;;0.75;0.30;;;20.70;78.30;;;;;;5142956;27;45284;-70
2022/10/01 00:26:40;;;;;;;0.77;0.47;;;20.70;78.20;;;;;;5141695;27;45435;-70
2022/10/01 00:29:11;;;;;;;0.50;0.30;;;20.70;78.40;;;;;;5140370;27;48388;-70
2022/10/01 00:31:37;;;;;;;0.82;0.50;;;20.70;78.30;;;;;;5134919;27;45305;-70
2022/10/01 00:34:05;;;;;;;1.00;0.60;;;20.70;78.20;;;;;;5138231;27;45357;-69
2022/10/01 00:36:33;;;;;;;1.88;0.65;;;20.70;78.30;;;;;;5144158;27;45286;-70
2022/10/01 00:39:00;;;;;;;0.60;0.50;;;20.70;78.20;;;;;;5143635;27;46095;-70
2022/10/01 00:41:29;;;;;;;1.35;0.50;;;20.70;78.10;;;;;;5131673;27;45449;-70
2022/10/01 00:43:59;;;;;;;0.80;0.60;;;20.70;77.70;;;;;;5147092;27;45244;-70
2022/10/01 00:46:29;;;;;;;0.93;0.50;;;20.80;77.70;;;;;;5137878;27;45355;-70
2022/10/01 00:48:59;;;;;;;0.50;0.50;;;20.70;77.50;;;;;;5145983;27;45498;-71
2022/10/01 00:51:29;;;;;;;0.60;0.60;;;20.80;77.40;;;;;;5143035;27;45839;-70
2022/10/01 00:54:02;;;;;;;0.65;0.50;;;20.70;77.10;;;;;;5123552;27;45316;-70
2022/10/01 00:56:31;;;;;;;1.00;0.80;;;20.70;77.00;;;;;;5125320;27;45391;-70
2022/10/01 00:58:59;;;;;;;1.17;0.47;;;20.70;77.00;;;;;;5139720;27;46369;-70
2022/10/01 01:01:26;;;;;;;0.80;0.50;;;20.70;77.00;;;;;;5136482;27;46472;-70
2022/10/01 01:03:53;;;;;;;0.40;0.40;;;20.70;77.00;;;;;;5140899;27;45420;-70
2022/10/01 01:06:20;;;;;;;0.47;0.40;;;20.70;76.80;;;;;;5144600;27;45620;-70
2022/10/01 01:08:52;;;;;;;0.55;0.43;;;20.70;76.60;;;;;;5130218;27;48555;-70
2022/10/01 01:11:28;;;;;;;0.63;0.50;;;20.70;76.60;;;;;;5142301;27;45399;-71
2022/10/01 01:14:03;;;;;;;0.52;0.40;;;20.70;76.40;;;;;;5141324;27;45346;-70
2022/10/01 01:16:37;;;;;;;1.67;0.40;;;20.70;76.70;;;;;;5130787;27;45575;-70
2022/10/01 01:19:13;;;;;;;0.50;0.38;;;20.70;76.60;;;;;;5142473;27;45497;-70
2022/10/01 01:21:44;;;;;;;0.52;0.35;;;20.70;76.30;;;;;;5132126;27;45510;-70
2022/10/01 01:24:36;;;;;;;0.40;0.40;;;20.70;76.60;;;;;;5145581;27;45517;-70
2022/10/01 01:27:21;;;;;;;0.70;0.47;;;20.70;76.70;;;;;;5137137;27;45378;-70
2022/10/01 01:29:55;;;;;;;0.47;0.45;;;20.70;76.50;;;;;;5138349;27;48385;-69
2022/10/01 01:32:25;;;;;;;1.75;0.40;;;20.70;76.10;;;;;;5144488;27;45412;-70
2022/10/01 01:34:54;;;;;;;0.43;0.40;;;20.70;76.60;;;;;;5140052;27;45292;-70
2022/10/01 01:37:26;;;;;;;0.70;0.50;;;20.70;76.40;;;;;;5136719;27;45422;-70
2022/10/01 01:39:56;;;;;;;0.50;0.40;;;20.70;76.50;;;;;;5142555;27;46330;-70
2022/10/01 01:42:29;;;;;;;0.50;0.40;;;20.70;76.30;;;;;;5139487;27;45982;-70
2022/10/01 01:45:00;;;;;;;1.10;0.30;;;20.70;76.20;;;;;;5134198;27;45370;-70
2022/10/01 01:47:33;;;;;;;0.30;0.30;;;20.70;76.00;;;;;;5131361;27;45318;-70
2022/10/01 01:50:02;;;;;;;0.35;0.30;;;20.70;76.30;;;;;;5128695;27;45403;-70
2022/10/01 01:52:29;;;;;;;0.70;0.30;;;20.70;76.30;;;;;;5141156;27;45438;-69
2022/10/01 01:54:57;;;;;;;0.75;0.50;;;20.70;75.80;;;;;;5137334;27;45758;-70
2022/10/01 01:57:25;;;;;;;0.30;0.28;;;20.70;75.80;;;;;;5140517;27;45627;-70
2022/10/01 01:59:53;;;;;;;0.32;0.30;;;20.70;75.90;;;;;;5139388;27;46396;-69
2022/10/01 02:02:25;;;;;;;0.40;0.30;;;20.70;75.60;;;;;;5140640;27;45362;-71
2022/10/01 02:04:56;;;;;;;0.30;0.30;;;20.70;75.80;;;;;;5139375;27;45482;-70
2022/10/01 02:07:46;;;;;;;0.20;0.20;;;20.70;75.60;;;;;;5137311;27;45514;-70
2022/10/01 02:10:27;;;;;;;0.30;0.30;;;20.70;75.60;;;;;;5140526;27;46362;-70
2022/10/01 02:13:10;;;;;;;0.25;0.25;;;20.70;75.40;;;;;;5137802;27;45365;-70
2022/10/01 02:15:46;;;;;;;0.30;0.20;;;20.70;75.40;;;;;;5138552;27;45350;-70
2022/10/01 02:18:24;;;;;;;1.35;0.57;;;20.70;75.30;;;;;;5128758;27;45521;-70
2022/10/01 02:20:57;;;;;;;0.35;0.35;;;20.70;75.30;;;;;;5140546;27;45279;-70
2022/10/01 02:23:30;;;;;;;0.30;0.30;;;20.70;75.40;;;;;;5140891;27;45975;-70
2022/10/01 02:26:01;;;;;;;0.45;0.40;;;20.70;75.60;;;;;;5141368;27;45560;-70
2022/10/01 02:28:31;;;;;;;0.30;0.30;;;20.70;75.60;;;;;;5126369;27;45428;-70
2022/10/01 02:31:01;;;;;;;0.20;0.20;;;20.70;75.70;;;;;;5140420;27;47350;-70
2022/10/01 02:33:33;;;;;;;0.40;0.30;;;20.70;76.00;;;;;;5135996;27;45339;-70
2022/10/01 02:36:02;;;;;;;0.80;0.73;;;20.70;76.00;;;;;;5143165;27;45396;-70
2022/10/01 02:38:30;;;;;;;0.40;0.30;;;20.70;76.00;;;;;;5139026;27;45462;-70
2022/10/01 02:41:03;;;;;;;0.43;0.30;;;20.70;75.90;;;;;;5140900;27;45276;-70
2022/10/01 02:43:35;;;;;;;0.40;0.20;;;20.70;75.90;;;;;;5137273;27;45541;-70
2022/10/01 02:46:08;;;;;;;0.30;0.20;;;20.70;76.00;;;;;;5143177;27;45540;-70
2022/10/01 02:48:36;;;;;;;0.20;0.20;;;20.70;76.20;;;;;;5144062;27;45512;-70
2022/10/01 02:51:15;;;;;;;1.48;0.28;;;20.70;76.40;;;;;;5141086;27;45466;-70
2022/10/01 02:53:45;;;;;;;0.35;0.25;;;20.80;76.30;;;;;;5141726;27;45429;-70
2022/10/01 02:57:21;;;;;;;0.77;0.35;;;20.70;76.30;;;;;;5135391;27;45461;-70
2022/10/01 02:58:59;;;;;;;0.80;0.20;;;20.70;76.40;;;;;;5140779;27;45569;-69
2022/10/01 03:01:26;;;;;;;0.28;0.28;;;20.70;76.40;;;;;;5125871;27;47346;-70
2022/10/01 03:03:54;;;;;;;0.22;0.22;;;20.70;76.30;;;;;;5144130;27;45465;-70
2022/10/01 03:06:21;;;;;;;0.60;0.38;;;20.70;76.30;;;;;;5141406;27;45352;-70
2022/10/01 03:08:47;;;;;;;0.20;0.20;;;20.70;76.40;;;;;;5142834;27;45681;-70
2022/10/01 03:11:15;;;;;;;1.55;0.10;;;20.70;76.30;;;;;;5137924;27;47505;-70
2022/10/01 03:13:42;;;;;;;0.30;0.20;;;20.70;76.40;;;;;;5142410;27;45362;-70
2022/10/01 03:16:09;;;;;;;0.50;0.30;;;20.70;76.40;;;;;;5139623;27;45393;-70
2022/10/01 03:18:36;;;;;;;0.35;0.20;;;20.70;76.30;;;;;;5138941;27;45677;-70
2022/10/01 03:21:04;;;;;;;0.30;0.25;;;20.70;76.50;;;;;;5140707;27;46651;-70
2022/10/01 03:23:31;;;;;;;1.00;0.22;;;20.70;76.40;;;;;;5146719;27;45484;-70
2022/10/01 03:25:57;;;;;;;0.10;0.10;;;20.70;76.60;;;;;;5138876;27;45336;-70
2022/10/01 03:28:24;;;;;;;0.40;0.20;;;20.70;76.60;;;;;;5142551;27;45632;-70
2022/10/01 03:30:51;;;;;;;0.47;0.20;;;20.70;76.60;;;;;;5142468;27;46404;-70
2022/10/01 03:33:17;;;;;;;0.55;0.32;;;20.70;76.60;;;;;;5145537;27;45431;-70
2022/10/01 03:35:44;;;;;;;0.20;0.17;;;20.70;76.70;;;;;;5142321;27;45272;-70
2022/10/01 03:38:12;;;;;;;0.32;0.20;;;20.70;76.70;;;;;;5146108;27;45263;-70
2022/10/01 03:40:39;;;;;;;0.45;0.20;;;20.70;76.80;;;;;;5141093;27;46357;-70
2022/10/01 03:43:06;;;;;;;0.20;0.20;;;20.70;76.80;;;;;;5129731;27;45409;-70
2022/10/01 03:45:32;;;;;;;1.48;0.13;;;20.70;76.80;;;;;;5140112;27;45611;-70
2022/10/01 03:47:59;;;;;;;0.85;0.32;;;20.70;76.80;;;;;;5147538;27;45299;-70
2022/10/01 03:50:26;;;;;;;0.20;0.20;;;20.70;76.80;;;;;;5145033;27;46594;-70
2022/10/01 03:52:53;;;;;;;0.30;0.30;;;20.70;77.80;;;;;;5147564;27;45305;-70
2022/10/01 03:55:21;;;;;;;0.28;0.20;;;20.80;76.90;;;;;;5140175;27;45392;-70
2022/10/01 03:57:49;;;;;;;0.13;0.13;;;20.80;76.80;;;;;;5147988;27;45460;-70
2022/10/01 04:00:17;;;;;;;0.22;0.20;;;20.70;76.80;;;;;;5137083;27;46619;-70
2022/10/01 04:02:44;;;;;;;0.08;0.08;;;20.70;76.80;;;;;;5144003;27;45607;-70
2022/10/01 04:05:11;;;;;;;0.30;0.10;;;20.70;76.70;;;;;;5147223;27;45476;-70
2022/10/01 04:07:37;;;;;;;0.63;0.20;;;20.70;76.60;;;;;;5141560;27;45562;-70
2022/10/01 04:10:05;;;;;;;0.20;0.20;;;20.70;76.60;;;;;;5133689;27;47188;-70
2022/10/01 04:12:33;;;;;;;0.20;0.20;;;20.70;77.70;;;;;;5144200;27;45300;-70
2022/10/01 04:15:00;;;;;;;0.13;0.10;;;20.70;76.50;;;;;;5134273;27;45471;-70
2022/10/01 04:17:27;;;;;;;0.47;0.13;;;20.70;76.60;;;;;;5137820;27;45290;-71
2022/10/01 04:19:56;;;;;;;0.75;0.20;;;20.70;76.70;;;;;;5140768;27;46099;-70
2022/10/01 04:22:23;;;;;;;0.13;0.10;;;20.70;76.60;;;;;;5145708;27;45294;-70
2022/10/01 04:24:50;;;;;;;0.17;0.10;;;20.70;76.70;;;;;;5141023;27;45298;-70
2022/10/01 04:27:16;;;;;;;0.10;0.10;;;20.70;76.60;;;;;;5147002;27;45275;-70
2022/10/01 04:29:45;;;;;;;0.17;0.13;;;20.70;76.80;;;;;;5139969;27;45488;-70
2022/10/01 04:32:11;;;;;;;1.00;0.20;;;20.70;76.90;;;;;;5141883;27;45363;-71
2022/10/01 04:37:19;;;;;;;0.00;0.00;;;20.70;76.80;;;;;;5141112;27;45497;-70
2022/10/01 04:39:45;;;;;;;0.22;0.20;;;20.70;77.00;;;;;;5146583;27;46572;-70
2022/10/01 04:42:13;;;;;;;0.43;0.20;;;20.70;77.00;;;;;;5144221;27;45339;-71
2022/10/01 04:44:39;;;;;;;0.10;0.10;;;20.70;77.00;;;;;;5145845;27;45514;-70
2022/10/01 04:47:08;;;;;;;0.00;0.00;;;20.70;77.00;;;;;;5140888;27;45553;-71
2022/10/01 04:49:35;;;;;;;0.10;0.10;;;20.70;77.00;;;;;;5145022;27;48122;-70
2022/10/01 04:52:03;;;;;;;0.20;0.10;;;20.70;77.00;;;;;;5140987;27;45271;-70
2022/10/01 04:54:29;;;;;;;0.10;0.10;;;20.70;77.10;;;;;;5145108;27;45497;-70
2022/10/01 04:56:57;;;;;;;0.10;0.10;;;20.70;77.00;;;;;;5138430;27;45345;-70
2022/10/01 04:59:24;;;;;;;0.00;0.00;;;20.70;77.10;;;;;;5144073;27;46518;-70
2022/10/01 05:01:51;;;;;;;0.30;0.10;;;20.70;77.20;;;;;;5142284;27;45543;-70
2022/10/01 05:04:19;;;;;;;0.40;0.10;;;20.70;77.20;;;;;;5148279;27;45355;-70
2022/10/01 05:06:46;;;;;;;0.00;0.00;;;20.70;77.00;;;;;;5139099;27;45605;-70
2022/10/01 05:09:13;;;;;;;0.13;0.10;;;20.70;77.00;;;;;;5142528;27;47182;-71
2022/10/01 05:11:39;;;;;;;0.10;0.10;;;20.70;77.00;;;;;;5142023;27;45449;-70
2022/10/01 05:14:07;;;;;;;0.38;0.10;;;20.70;76.90;;;;;;5145416;27;45422;-70
2022/10/01 05:16:34;;;;;;;0.20;0.10;;;20.70;77.00;;;;;;5143186;27;45600;-70
2022/10/01 05:19:01;;;;;;;0.30;0.20;;;20.70;77.00;;;;;;5146219;27;47667;-71
2022/10/01 05:21:29;;;;;;;0.00;0.00;;;20.70;76.80;;;;;;5141225;27;45379;-70
2022/10/01 05:23:55;;;;;;;0.10;0.10;;;20.70;76.90;;;;;;5138547;27;45331;-70
2022/10/01 05:26:22;;;;;;;0.20;0.10;;;20.70;76.80;;;;;;5131368;27;45252;-70
2022/10/01 05:28:49;;;;;;;0.32;0.10;;;20.70;77.00;;;;;;5140244;27;47546;-70
2022/10/01 05:31:17;;;;;;;0.10;0.10;;;20.70;77.00;;;;;;5144464;27;45905;-70
2022/10/01 05:33:44;;;;;;;0.10;0.10;;;20.70;77.10;;;;;;5142241;27;45475;-70
2022/10/01 05:36:10;;;;;;;1.25;0.00;;;20.70;77.10;;;;;;5142810;27;45236;-70
2022/10/01 05:38:38;;;;;;;0.55;0.17;;;20.70;77.10;;;;;;5145424;27;47538;-70
2022/10/01 05:41:06;;;;;;;0.00;0.00;;;20.70;77.20;;;;;;5137727;27;45483;-70
2022/10/01 05:43:32;;;;;;;0.10;0.00;;;20.70;77.20;;;;;;5138391;27;45476;-70
2022/10/01 05:46:00;;;;;;;0.08;0.08;;;20.70;77.10;;;;;;5140348;27;45576;-70
2022/10/01 05:48:27;;;;;;;0.08;0.03;;;20.70;77.30;;;;;;5124208;27;46679;-70
2022/10/01 05:50:54;;;;;;;0.00;0.00;;;20.70;77.20;;;;;;5145164;27;45354;-70
2022/10/01 05:53:22;;;;;;;0.10;0.10;;;20.70;77.20;;;;;;5142266;27;45442;-70
2022/10/01 05:55:50;;;;;;;0.00;0.00;;;20.70;77.20;;;;;;5145554;27;45507;-69
2022/10/01 05:58:17;;;;;;;0.00;0.00;;;20.70;77.30;;;;;;5136125;27;45233;-70
2022/10/01 06:00:44;;;;;;;0.00;0.00;;;20.80;77.30;;;;;;5145899;27;45263;-71
2022/10/01 06:03:12;;;;;;;0.70;0.20;;;20.70;77.30;;;;;;5134126;27;45749;-70
2022/10/01 06:05:39;;;;;;;0.15;0.00;;;20.70;77.30;;;;;;5138302;27;45359;-70
2022/10/01 06:08:08;;;;;;;0.00;0.00;;;20.70;77.20;;;;;;5136101;27;46305;-70
2022/10/01 06:10:35;;;;;;;0.08;0.08;;;20.70;77.10;;;;;;5143602;27;45431;-70
2022/10/01 06:13:05;;;;;;;0.08;0.08;;;20.70;77.20;;;;;;5136986;27;45531;-70
2022/10/01 06:15:36;;;;;;;0.00;0.00;;;20.70;77.10;;;;;;5138318;27;45534;-70
2022/10/01 06:18:03;;;;;;;0.00;0.00;;;20.70;77.30;;;;;;5144935;27;45307;-70
2022/10/01 06:20:29;;;;;;;0.20;0.10;;;20.70;77.20;;;;;;5138038;27;45426;-70
2022/10/01 06:22:58;;;;;;;0.00;0.00;;;20.70;77.20;;;;;;5137863;27;45353;-71
2022/10/01 06:25:29;;;;;;;0.00;0.00;;;20.70;77.20;;;;;;5133431;27;45318;-70
2022/10/01 06:27:57;;;;;;;0.00;0.00;;;20.70;77.30;;;;;;5135669;27;47180;-71
2022/10/01 06:30:27;;;;;;;0.00;0.00;;;20.70;77.30;;;;;;5139145;27;45520;-70
2022/10/01 06:32:54;;;;;;;0.20;0.03;;;20.70;77.20;;;;;;5128366;27;45462;-70
2022/10/01 06:35:20;;;;;;;0.00;0.00;;;20.70;77.30;;;;;;5137316;27;45611;-70
2022/10/01 06:37:47;;;;;;;0.25;0.03;;;20.70;77.40;;;;;;5137953;27;46573;-71
2022/10/01 06:40:14;;;;;;;0.10;0.10;;;20.70;77.60;;;;;;5132536;27;45472;-70
2022/10/01 06:42:47;;;;;;;0.17;0.05;;;20.70;77.50;;;;;;5138592;27;45526;-71
2022/10/01 06:45:14;;;;;;;0.03;0.03;;;20.70;77.40;;;;;;5139763;27;45308;-71
2022/10/01 06:47:42;;;;;;;0.57;0.08;;;20.70;77.30;;;;;;5131795;27;47147;-70
2022/10/01 06:50:34;;;;;;;0.00;0.00;;;20.70;77.20;;;;;;5127900;27;45415;-70
2022/10/01 06:53:01;;;;;;;0.15;0.10;;;20.70;77.10;;;;;;5142565;27;45312;-71
2022/10/01 06:55:30;;;;;;;0.00;0.00;;;20.70;77.20;;;;;;5138759;27;45410;-70
2022/10/01 06:57:57;;;;;;;0.00;0.00;;;20.70;77.20;;;;;;5138397;27;46355;-70
2022/10/01 07:00:25;;;;;;;0.00;0.00;;;20.70;77.20;;;;;;5138768;27;45415;-70
2022/10/01 07:02:54;;;;;;;0.22;0.10;;;20.70;77.30;;;;;;5141489;27;45817;-70
2022/10/01 07:05:21;;;;;;;0.00;0.00;;;20.70;77.40;;;;;;5139045;27;45465;-71
2022/10/01 07:07:48;;;;;;;0.00;0.00;;;20.70;77.50;;;;;;5130522;27;46761;-70
2022/10/01 07:10:16;;;;;;;0.40;0.10;;;20.70;77.60;;;;;;5138663;27;45364;-70
2022/10/01 07:12:42;;;;;;;0.10;0.00;;;20.70;77.70;;;;;;5130612;27;45318;-70
2022/10/01 07:15:09;;;;;;;0.10;0.00;;;20.70;77.80;;;;;;5132058;27;45447;-70
2022/10/01 07:17:43;;;;;;;0.30;0.10;;;20.70;77.90;;;;;;5130736;27;47513;-70
2022/10/01 07:20:13;;;;;;;0.00;0.00;;;20.70;77.80;;;;;;5136026;27;45931;-70
2022/10/01 07:22:40;;;;;;;0.00;0.00;;;20.70;77.80;;;;;;5134926;27;45757;-70
2022/10/01 07:25:08;;;;;;;0.00;0.00;;;20.70;77.90;;;;;;5139840;27;45624;-70
2022/10/01 07:27:34;;;;;;;0.20;0.00;;;20.70;78.00;;;;;;5139047;27;46149;-70
2022/10/01 07:30:01;;;;;;;0.30;0.10;;;20.70;78.00;;;;;;5135132;27;45490;-71
2022/10/01 07:32:30;;;;;;;0.00;0.00;;;20.70;78.00;;;;;;5136544;27;45333;-71
2022/10/01 07:34:57;;;;;;;0.00;0.00;;;20.70;78.10;;;;;;5138920;27;45370;-70
2022/10/01 07:37:25;;;;;;;0.00;0.00;;;20.70;78.20;;;;;;5143192;27;46584;-70
2022/10/01 07:39:53;;;;;;;0.25;0.10;;;20.70;78.30;;;;;;5141247;27;45806;-70
2022/10/01 07:42:20;;;;;;;0.05;0.00;;;20.70;78.30;;;;;;5141854;27;45493;-70
2022/10/01 07:44:47;;;;;;;0.00;0.00;;;20.70;78.40;;;;;;5141479;27;45394;-71
2022/10/01 07:47:13;;;;;;;0.15;0.05;;;20.70;78.50;;;;;;5140498;27;46079;-70
2022/10/01 07:49:40;;;;;;;0.10;0.10;;;20.70;78.80;;;;;;5144008;27;45403;-70
2022/10/01 07:52:07;;;;;;;0.22;0.10;;;20.70;78.80;;;;;;5137988;27;45397;-70
2022/10/01 07:54:35;;;;;;;0.00;0.00;;;20.70;78.70;;;;;;5140757;27;45439;-71
2022/10/01 07:57:02;;;;;;;0.22;0.10;;;20.70;78.80;;;;;;5131462;27;47525;-71
2022/10/01 07:59:30;;;;;;;0.10;0.00;;;20.70;78.80;;;;;;5137931;27;45490;-70
2022/10/01 08:01:57;;;;;;;0.03;0.00;;;20.80;78.90;;;;;;5133216;27;45625;-70
2022/10/01 08:07:08;;;;;;;0.15;0.00;;;20.70;78.90;;;;;;5130711;27;46025;-70
2022/10/01 08:09:37;;;;;;;0.17;0.10;;;20.70;78.80;;;;;;5136839;27;45473;-71
2022/10/01 08:12:04;;;;;;;0.00;0.00;;;20.70;78.90;;;;;;5142360;27;45295;-70
2022/10/01 08:14:30;;;;;;;0.00;0.00;;;20.70;78.80;;;;;;5143864;27;45422;-70
2022/10/01 08:16:57;;;;;;;2.15;0.00;;;20.70;78.90;;;;;;5142548;27;46638;-70
2022/10/01 08:19:24;;;;;;;0.08;0.00;;;20.80;78.90;;;;;;5145888;27;45354;-70
2022/10/01 08:21:51;;;;;;;0.45;0.00;;;20.70;78.90;;;;;;5142717;27;45351;-70
2022/10/01 08:24:18;;;;;;;0.10;0.10;;;20.70;78.90;;;;;;5142427;27;45593;-71
2022/10/01 08:26:52;;;;;;;0.25;0.03;;;20.70;78.80;;;;;;5136883;27;47222;-70
2022/10/01 08:29:19;;;;;;;0.08;0.08;;;20.70;78.80;;;;;;5142472;27;45627;-71
2022/10/01 08:31:46;;;;;;;0.03;0.00;;;20.70;78.90;;;;;;5131316;27;45340;-70
2022/10/01 08:34:12;;;;;;;0.10;0.08;;;20.70;78.90;;;;;;5143223;27;45368;-71
2022/10/01 08:36:40;;;;;;;0.00;0.00;;;20.70;78.80;;;;;;5134367;27;45344;-71
2022/10/01 08:39:06;;;;;;;0.10;0.10;;;20.70;78.80;;;;;;5127910;27;45405;-70
2022/10/01 08:41:44;;;;;;;0.10;0.05;;;20.70;78.80;;;;;;5136966;27;45355;-70
2022/10/01 08:44:20;;;;;;;0.32;0.10;;;20.70;78.80;;;;;;5136240;27;45541;-70
2022/10/01 08:46:48;;;;;;;0.10;0.10;;;20.70;79.00;;;;;;5139997;27;48051;-70
2022/10/01 08:49:20;;;;;;;0.00;0.00;;;20.70;78.80;;;;;;5134719;27;45513;-70
2022/10/01 08:51:52;;;;;;;0.20;0.00;;;20.70;78.90;;;;;;5140947;27;45438;-70
2022/10/01 08:54:28;;;;;;;0.28;0.13;;;20.70;78.80;;;;;;5129358;27;45376;-70
2022/10/01 08:57:00;;;;;;;0.32;0.05;;;20.70;78.90;;;;;;5134129;27;47102;-70
2022/10/01 08:59:38;;;;;;;0.28;0.10;;;20.70;78.80;;;;;;5127306;27;45521;-71
2022/10/01 09:02:19;;;;;;;0.10;0.10;;;20.70;78.80;;;;;;5129683;27;45383;-70
2022/10/01 09:04:46;;;;;;;0.10;0.10;;;20.70;78.80;;;;;;5131134;27;45513;-70
2022/10/01 09:07:22;;;;;;;0.45;0.10;;;20.80;78.90;;;;;;5133078;27;47171;-70
2022/10/01 09:09:55;;;;;;;0.10;0.10;;;20.70;78.80;;;;;;5144057;27;45356;-71
2022/10/01 09:12:33;;;;;;;0.13;0.13;;;20.80;78.90;;;;;;5143818;27;45361;-70
2022/10/01 09:15:16;;;;;;;0.20;0.10;;;20.80;78.90;;;;;;5140872;27;45488;-70
2022/10/01 09:17:55;;;;;;;0.32;0.20;;;20.70;78.80;;;;;;5145748;27;46345;-71
2022/10/01 09:20:26;;;;;;;0.20;0.10;;;20.80;78.90;;;;;;5143952;27;45333;-71
2022/10/01 09:23:03;;;;;;;0.00;0.00;;;20.70;78.80;;;;;;5130912;27;45768;-70
2022/10/01 09:25:31;;;;;;;0.15;0.03;;;20.70;78.80;;;;;;5122460;27;45410;-70
2022/10/01 09:28:02;;;;;;;1.00;0.20;;;20.70;78.80;;;;;;5145587;27;48427;-70
2022/10/01 09:30:32;;;;;;;0.15;0.10;;;20.70;78.80;;;;;;5146332;27;45424;-71
2022/10/01 09:33:03;;;;;;;0.00;0.00;;;20.80;78.90;;;;;;5146538;27;45216;-70
2022/10/01 09:35:37;;;;;;;0.30;0.10;;;20.70;78.90;;;;;;5145856;27;45373;-71
2022/10/01 09:38:10;;;;;;;0.28;0.20;;;20.70;78.80;;;;;;5142579;27;46335;-70
2022/10/01 09:40:45;;;;;;;0.30;0.20;;;20.70;78.80;;;;;;5124737;27;45446;-71
2022/10/01 09:43:13;;;;;;;0.75;0.20;;;20.70;78.90;;;;;;5125389;27;45363;-71
2022/10/01 09:45:41;;;;;;;0.17;0.08;;;20.70;78.90;;;;;;5124211;27;45367;-70
2022/10/01 09:48:17;;;;;;;0.40;0.20;;;20.70;78.90;;;;;;5125142;27;47438;-70
2022/10/01 09:50:53;;;;;;;0.30;0.10;;;20.70;79.10;;;;;;5121649;27;45374;-71
2022/10/01 09:53:24;;;;;;;0.30;0.20;;;20.70;79.20;;;;;;5125737;27;45267;-71
2022/10/01 09:55:55;;;;;;;0.55;0.10;;;20.70;79.30;;;;;;5125551;27;45241;-70
2022/10/01 09:58:25;;;;;;;0.28;0.20;;;20.80;79.30;;;;;;5125642;27;45496;-70
2022/10/01 10:00:55;;;;;;;0.55;0.10;;;20.80;79.60;;;;;;5124855;27;45369;-70
2022/10/01 10:03:24;;;;;;;0.03;0.00;;;20.80;79.50;;;;;;5124737;27;45347;-71
2022/10/01 10:05:52;;;;;;;0.10;0.10;;;20.80;79.50;;;;;;5124513;27;45523;-70
2022/10/01 10:08:26;;;;;;;0.20;0.10;;;20.80;79.70;;;;;;5141952;27;46091;-71
2022/10/01 10:10:59;;;;;;;0.10;0.10;;;20.80;79.70;;;;;;5144596;27;46163;-70
2022/10/01 10:13:33;;;;;;;0.00;0.00;;;20.80;79.70;;;;;;5133123;27;45473;-71
2022/10/01 10:16:09;;;;;;;0.00;0.00;;;20.80;79.70;;;;;;5127218;27;45489;-70
2022/10/01 10:18:38;;;;;;;0.17;0.15;;;20.80;79.80;;;;;;5146374;27;45391;-71
2022/10/01 10:21:07;;;;;;;0.10;0.10;;;20.80;79.80;;;;;;5143952;27;45309;-70
2022/10/01 10:23:34;;;;;;;0.13;0.13;;;20.80;79.90;;;;;;5144830;27;45341;-71
2022/10/01 10:26:04;;;;;;;0.75;0.10;;;20.80;80.00;;;;;;5145205;27;45405;-71
2022/10/01 10:28:40;;;;;;;0.90;0.22;;;20.80;79.90;;;;;;5144886;27;46232;-71
2022/10/01 10:31:13;;;;;;;0.32;0.10;;;20.80;80.00;;;;;;5126270;27;45277;-70
2022/10/01 10:33:46;;;;;;;0.32;0.10;;;20.80;80.00;;;;;;5123513;27;45457;-71
2022/10/01 10:36:15;;;;;;;0.32;0.15;;;20.70;80.00;;;;;;5124283;27;45274;-71
2022/10/01 10:38:48;;;;;;;0.98;0.20;;;20.80;80.30;;;;;;5124114;27;46774;-71
2022/10/01 10:41:18;;;;;;;0.15;0.15;;;20.70;80.00;;;;;;5124399;27;45374;-71
2022/10/01 10:43:48;;;;;;;0.30;0.20;;;20.70;80.00;;;;;;5124146;27;45391;-71
2022/10/01 10:46:25;;;;;;;0.45;0.20;;;20.80;80.10;;;;;;5124686;27;45802;-71
2022/10/01 10:48:58;;;;;;;0.63;0.20;;;20.80;80.10;;;;;;5123767;27;45551;-70
2022/10/01 10:51:26;;;;;;;0.47;0.10;;;20.80;80.00;;;;;;5124462;27;45217;-71
2022/10/01 10:53:53;;;;;;;0.20;0.20;;;20.80;80.10;;;;;;5123600;27;45194;-70
2022/10/01 10:56:23;;;;;;;0.25;0.17;;;20.80;80.20;;;;;;5124334;27;45519;-71
2022/10/01 10:58:52;;;;;;;0.85;0.20;;;20.80;80.20;;;;;;5123924;27;47285;-70
2022/10/01 11:01:28;;;;;;;0.50;0.35;;;20.80;80.20;;;;;;5124181;27;45333;-70
2022/10/01 11:03:57;;;;;;;3.20;0.40;;;20.80;80.20;;;;;;5130816;27;45467;-71
2022/10/01 11:06:24;;;;;;;0.20;0.10;;;20.80;80.20;;;;;;5143373;27;45565;-70
2022/10/01 11:08:59;;;;;;;0.65;0.30;;;20.80;80.50;;;;;;5124888;27;47597;-70
2022/10/01 11:11:42;;;;;;;1.52;0.30;;;20.80;80.10;;;;;;5123240;27;45432;-71
2022/10/01 11:14:26;;;;;;;0.75;0.30;;;20.80;80.30;;;;;;5122905;27;45382;-71
2022/10/01 11:17:21;;;;;;;0.95;0.30;;;20.80;80.10;;;;;;5122378;27;45438;-70
2022/10/01 11:20:03;;;;;;;0.65;0.40;;;20.80;80.20;;;;;;5121915;27;47554;-70
2022/10/01 11:22:46;;;;;;;0.70;0.30;;;20.80;80.10;;;;;;5123718;27;45389;-70
2022/10/01 11:25:35;;;;;;;0.90;0.45;;;20.80;80.00;;;;;;5123261;27;45252;-70
2022/10/01 11:28:12;;;;;;;0.65;0.20;;;20.80;80.10;;;;;;5123840;27;45442;-70
2022/10/01 11:30:53;;;;;;;0.20;0.13;;;20.80;80.00;;;;;;5123274;27;48046;-70
2022/10/01 11:33:30;;;;;;;1.55;0.32;;;20.80;80.00;;;;;;5123569;27;45308;-71
2022/10/01 11:36:03;;;;;;;2.22;0.30;;;20.80;80.00;;;;;;5123138;27;45308;-71
2022/10/01 11:38:48;;;;;;;0.52;0.20;;;20.80;80.00;;;;;;5124003;27;45410;-71
2022/10/01 11:41:30;;;;;;;1.13;0.28;;;20.80;79.90;;;;;;5123383;27;46300;-70
2022/10/01 11:44:01;;;;;;;0.52;0.38;;;20.80;80.10;;;;;;5125858;27;45479;-70
2022/10/01 11:46:41;;;;;;;0.68;0.40;;;20.80;79.90;;;;;;5127302;27;45500;-71
2022/10/01 11:49:24;;;;;;;0.55;0.38;;;20.80;79.70;;;;;;5127766;27;45307;-71
2022/10/01 11:51:55;;;;;;;0.50;0.20;;;20.80;79.60;;;;;;5126623;27;48546;-70
2022/10/01 11:54:27;;;;;;;0.75;0.30;;;20.80;79.60;;;;;;5127114;27;45301;-71
2022/10/01 11:59:48;;;;;;;0.50;0.28;;;20.80;79.70;;;;;;5123958;27;45370;-71
2022/10/01 12:02:22;;;;;;;1.75;0.30;;;20.80;79.60;;;;;;5126252;27;46583;-70
2022/10/01 12:04:56;;;;;;;0.45;0.30;;;20.80;79.60;;;;;;5126816;27;45413;-71
2022/10/01 12:07:29;;;;;;;0.80;0.28;;;20.80;79.50;;;;;;5136021;27;45347;-71
2022/10/01 12:10:02;;;;;;;0.68;0.40;;;20.80;79.50;;;;;;5147845;27;45345;-70
2022/10/01 12:12:35;;;;;;;0.43;0.20;;;20.80;79.50;;;;;;5145675;27;48316;-70
2022/10/01 12:15:09;;;;;;;1.02;0.40;;;20.80;79.60;;;;;;5145959;27;45349;-70
2022/10/01 12:17:43;;;;;;;0.82;0.30;;;20.80;79.60;;;;;;5147609;27;45522;-70
2022/10/01 12:20:23;;;;;;;1.75;0.52;;;20.80;79.40;;;;;;5146104;27;45253;-71
2022/10/01 12:22:50;;;;;;;0.55;0.28;;;20.80;79.20;;;;;;5147509;27;46596;-70
2022/10/01 12:25:19;;;;;;;1.15;0.40;;;20.80;79.20;;;;;;5146255;27;45586;-70
2022/10/01 12:27:56;;;;;;;0.30;0.25;;;20.80;79.10;;;;;;5147574;27;45322;-70
2022/10/01 12:30:26;;;;;;;0.93;0.30;;;20.80;78.90;;;;;;5126881;27;45470;-70
2022/10/01 12:33:07;;;;;;;2.08;0.30;;;20.80;79.00;;;;;;5126488;27;47323;-70
2022/10/01 12:35:48;;;;;;;2.72;0.32;;;20.80;78.90;;;;;;5125708;27;45348;-70
2022/10/01 12:38:33;;;;;;;1.08;0.28;;;20.80;78.90;;;;;;5126018;27;45436;-71
2022/10/01 12:41:09;;;;;;;0.60;0.40;;;20.80;78.90;;;;;;5126000;27;45342;-71
2022/10/01 12:44:00;;;;;;;0.88;0.20;;;20.80;78.90;;;;;;5126136;27;45245;-71
2022/10/01 12:46:36;;;;;;;0.77;0.40;;;20.80;78.90;;;;;;5126451;27;46114;-71
2022/10/01 12:49:13;;;;;;;1.27;0.38;;;20.80;78.90;;;;;;5126439;27;46013;-70
2022/10/01 12:51:44;;;;;;;0.47;0.30;;;20.80;78.90;;;;;;5126327;27;45296;-70
2022/10/01 12:54:35;;;;;;;1.70;0.32;;;20.80;78.90;;;;;;5126952;27;47847;-70
2022/10/01 12:57:12;;;;;;;0.98;0.45;;;20.80;78.90;;;;;;5125799;27;45760;-71
2022/10/01 12:59:53;;;;;;;0.55;0.22;;;20.80;78.90;;;;;;5122848;27;45416;-70
2022/10/01 13:02:42;;;;;;;0.30;0.22;;;20.80;79.00;;;;;;5126810;27;45397;-71
2022/10/01 13:05:28;;;;;;;0.73;0.40;;;20.80;79.10;;;;;;5124935;27;45283;-71
2022/10/01 13:08:25;;;;;;;1.20;0.40;;;20.80;79.10;;;;;;5139798;27;45799;-70
2022/10/01 13:11:02;;;;;;;0.90;0.40;;;20.80;79.50;;;;;;5144880;27;45217;-70
2022/10/01 13:13:32;;;;;;;0.43;0.30;;;20.80;79.40;;;;;;5146955;27;45358;-70
2022/10/01 13:16:05;;;;;;;1.38;0.47;;;20.80;79.30;;;;;;5143753;27;45535;-70